Terminal Aerodrome Forecast
Issued by NWS Wilmington, OH

Home | Current Version | Previous Version | Text Only | Print | Product List | Glossary On
Versions: 1 2 3 4 5 6 7 8 9 10 11 12 13 14 15 16 17 18 19 20 21 22 23 24 25 26 27 28 29 30
000
FTUS41 KILN 301842 AAA
TAFDAY
TAF AMD
KDAY 301842Z 3019/0118 10007KT P6SM VCSH OVC015
      TEMPO 3019/3022 4SM -SHRA BR BKN008
     FM302300 13007KT P6SM BKN025
     FM010000 15004KT P6SM BKN030
     FM011000 VRB03KT 5SM BR VCSH BKN020
      TEMPO 0111/0114 2SM -SHRA BR BKN010
     FM011600 18005KT P6SM VCSH BKN025=

USA.gov is the U.S. government's official web portal to all federal, state and local government web resources and services.